Flight Track Log - Related Links

Times and Time Zones

All times are in EDT time to prevent confusion due to time zone crossing. See the ASQ6115 flight status page for this flight to view local times or setup timezone preferences in your user account.

Time Position Orientation Groundspeed Altitude Reporting Facility
EDT Latitude Longitude Course Direction KTS MPH feet Rate Location/Type
Sun 08:45:06 AM 41.4258 -81.8292 90° East 191 220 1,900  Level Cleveland Center
Sun 08:46:00 AM 41.4783 -81.7969 25° Northeast 234 269 3,100 1,789 Climbing Cleveland Center
Sun 08:47:00 AM 41.5350 -81.7425 36° Northeast 263 303 5,300 2,150 Climbing Cleveland Center
Sun 08:48:00 AM 41.6932 -81.5568 37° Northeast  Level FlightAware Approximate
Sun 08:48:00 AM 41.5942 -81.6769 40° Northeast 278 320 7,400  Level Cleveland Center
Sun 08:49:00 AM 41.7671 -81.4830 37° Northeast  Level FlightAware Approximate
Sun 08:49:00 AM 41.6572 -81.6114 38° Northeast 278 320 9,600  Level Cleveland Center
Sun 08:50:00 AM 41.8333 -81.4039 90° East  Level FlightAware Approximate
Sun 08:50:00 AM 41.7289 -81.5375 38° Northeast 306 352 10,600  Level Cleveland Center
Sun 08:51:00 AM 41.7775 -81.4322 58° Northeast 319 367 11,400 1,000 Climbing Cleveland Center
Sun 08:52:00 AM 41.7700 -81.3181 95° East 320 368 12,600 1,200 Climbing Cleveland Center
Sun 08:53:00 AM 41.7478 -81.1842 102° East 341 392 13,800 1,200 Climbing Cleveland Center
Sun 08:54:00 AM 41.7275 -81.0533 102° East 357 411 15,000 1,200 Climbing Cleveland Center
Sun 08:55:00 AM 41.7053 -80.9225 103° East 362 417 16,200 1,150 Climbing Cleveland Center
Sun 08:56:00 AM 41.6825 -80.7861 103° East 362 417 17,300 950 Climbing Cleveland Center
Sun 08:57:00 AM 41.6578 -80.6414 103° East 362 417 18,100 900 Climbing Cleveland Center
Sun 08:58:00 AM 41.6347 -80.5053 103° East 362 417 19,100 1,067 Climbing Cleveland Center
Sun 08:59:00 AM 41.6003 -80.3762 104° East  Level FlightAware Approximate
Sun 09:00:00 AM 41.5925 -80.2306 104° East 377 434 21,300  Level Cleveland Center
Sun 09:01:00 AM 41.5669 -80.0892 104° East 377 434 22,300 1,050 Climbing Cleveland Center
Sun 09:02:00 AM 41.5433 -79.9533 103° East 377 434 23,400 1,100 Climbing Cleveland Center
Sun 09:03:00 AM 41.5197 -79.8178 103° East 371 427 24,500 950 Climbing Cleveland Center
Sun 09:04:00 AM 41.4958 -79.6794 103° East 376 433 25,300 700 Climbing Cleveland Center
Sun 09:05:00 AM 41.4694 -79.5356 104° East 376 433 25,900 600 Climbing Cleveland Center
Sun 09:06:00 AM 41.4431 -79.3892 103° East 390 449 26,500 550 Climbing Cleveland Center
Sun 09:07:00 AM 41.4164 -79.2403 103° East 397 457 27,000 550 Climbing Cleveland Center
Sun 09:08:00 AM 41.3894 -79.0914 104° East 408 470 27,600 600 Climbing Cleveland Center
Sun 09:09:00 AM 41.3644 -78.9369 102° East 414 476 28,200 600 Climbing Cleveland Center
Sun 09:10:00 AM 41.3372 -78.7828 103° East 419 482 28,800 400 Climbing Cleveland Center
Sun 09:11:00 AM 41.3075 -78.6289 104° East 419 482 29,000 100 Climbing Cleveland Center
Sun 09:12:00 AM 41.2775 -78.4694 104° East 430 495 29,000  Level Cleveland Center
Sun 09:13:00 AM 41.2475 -78.3075 104° East 441 507 29,000  Level Cleveland Center
Sun 09:13:44 AM 41.2258 -78.2086 106° East 451 519 29,000  Level New York Center
Sun 09:14:42 AM 41.2008 -78.0406 101° East 456 525 29,000  Level New York Center
Sun 09:15:43 AM 41.1800 -77.8700 99° East 461 531 29,000  Level New York Center
Sun 09:16:43 AM 41.1586 -77.7022 100° East 461 531 29,000  Level New York Center
Sun 09:17:42 AM 41.1392 -77.5350 99° East 456 525 29,000 -200 Level New York Center
Sun 09:18:43 AM 41.1122 -77.3478 101° East 461 531 28,600 -950 Descending New York Center
Sun 09:19:42 AM 41.0903 -77.1775 100° East 461 531 27,100 -1,765 Descending New York Center
Sun 09:20:42 AM 41.0661 -77.0047 100° East 466 536 25,100 -1,934 Descending New York Center
Sun 09:21:43 AM 41.0433 -76.8375 100° East 471 542 23,200 -1,918 Descending New York Center
Sun 09:22:44 AM 41.0222 -76.6786 100° East 459 528 21,200 -1,780 Descending New York Center
Sun 09:23:41 AM 40.9883 -76.5244 106° East 448 516 19,700 -1,373 Descending New York Center
Sun 09:24:42 AM 40.9517 -76.3758 108° East 429 494 18,500 -836 Descending New York Center
Sun 09:25:43 AM 40.9169 -76.2247 107° East 429 494 18,000 -893 Descending New York Center
Sun 09:26:43 AM 40.8819 -76.0819 108° East 423 487 16,700 -1,676 Descending New York Center
Sun 09:28:00 AM 40.8362 -75.9254 114° Southeast  Level FlightAware Approximate
Sun 09:28:42 AM 40.8164 -75.8161 114° Southeast 399 459 13,000  Level New York Center
Sun 09:29:42 AM 40.7767 -75.6681 109° East 394 453 12,800 -600 Descending New York Center
Sun 09:30:42 AM 40.7400 -75.5475 112° Southeast 394 453 11,800 -992 Descending New York Center
Sun 09:31:43 AM 40.6992 -75.4189 113° Southeast 388 447 10,800 -900 Descending New York Center
Sun 09:32:42 AM 40.6561 -75.2928 114° Southeast 380 437 10,000 -403 Descending New York Center
Sun 09:33:42 AM 40.6156 -75.1561 111° Southeast 375 432 10,000  Level New York Center
Sun 09:34:42 AM 40.5744 -75.0278 113° Southeast 369 425 10,000  Level New York Center
Sun 09:35:43 AM 40.5408 -74.9167 112° Southeast 369 425 10,000  Level New York Center
Sun 09:36:18 AM 40.5167 -74.8333 111° Southeast 326 375 10,000  Level New York TRACON
Sun 09:37:18 AM 40.4833 -74.7333 114° Southeast 302 348 10,000  Level New York TRACON
Sun 09:38:24 AM 40.4500 -74.6167 111° Southeast 307 353 10,000 48 Level New York TRACON
Sun 09:39:24 AM 40.4333 -74.5167 102° East 306 352 10,100 -300 Climbing New York TRACON
Sun 09:40:24 AM 40.4500 -74.4167 78° East 303 349 9,400 -1,000 Descending New York TRACON
Sun 09:41:18 AM 40.4333 -74.3167 102° East 281 323 8,200 -737 Descending New York TRACON
Sun 09:42:18 AM 40.4500 -74.2167 78° East 287 330 8,000 -400 Descending New York TRACON
Sun 09:43:18 AM 40.5167 -74.1500 37° Northeast 272 313 7,400 -1,286 Descending New York TRACON
Sun 09:44:24 AM 40.5833 -74.0833 37° Northeast 275 316 5,300 -1,600 Descending New York TRACON
Sun 09:45:18 AM 40.6333 -74.0333 37° Northeast 271 312 4,200 -600 Descending New York TRACON
Sun 09:46:24 AM 40.7000 -73.9667 37° Northeast 270 311 4,100 -95 Descending New York TRACON
Sun 09:47:24 AM 40.7333 -73.8833 62° Northeast 276 318 4,000 -50 Descending New York TRACON
Sun 09:48:24 AM 40.7833 -73.8000 52° Northeast 270 311 4,000 -450 Level New York TRACON
Sun 09:49:24 AM 40.8167 -73.7167 62° Northeast 270 311 3,100 -474 Descending New York TRACON
Sun 09:50:18 AM 40.8833 -73.6833 21° North 255 293 3,100 -53 Level New York TRACON
Sun 09:51:18 AM 40.9333 -73.6667 14° North 214 246 3,000 -500 Descending New York TRACON
Sun 09:52:18 AM 40.9167 -73.7333 252° West 173 199 2,100 -900 Descending New York TRACON

Login

Don't have an account? Register now (free) for customized features, flight alerts, and more!